createdAt,value
2022-11-07T00:01:14.048Z,8.69
2022-11-07T00:04:15.490Z,8.70
2022-11-07T00:07:17.299Z,8.71
2022-11-07T00:10:18.771Z,8.74
2022-11-07T00:13:20.270Z,8.78
2022-11-07T00:16:23.102Z,8.81
2022-11-07T00:19:24.718Z,8.84
2022-11-07T00:22:26.130Z,8.83
2022-11-07T00:25:27.556Z,8.85
2022-11-07T00:28:29.070Z,8.83
2022-11-07T00:31:32.226Z,8.84
2022-11-07T00:34:35.378Z,8.86
2022-11-07T00:37:37.164Z,8.87
2022-11-07T00:40:38.763Z,8.90
2022-11-07T00:43:40.316Z,8.89
2022-11-07T00:46:43.295Z,8.91
2022-11-07T00:49:44.780Z,8.91
2022-11-07T00:52:46.249Z,8.89
2022-11-07T00:55:47.776Z,8.92
2022-11-07T00:58:49.347Z,8.94
2022-11-07T01:01:52.293Z,8.97
2022-11-07T01:05:12.200Z,8.97
2022-11-07T01:08:13.737Z,8.99
2022-11-07T01:11:15.549Z,8.98
2022-11-07T01:14:18.643Z,9.00
2022-11-07T01:17:21.559Z,9.03
2022-11-07T01:20:23.224Z,9.02
2022-11-07T01:23:24.754Z,9.00
2022-11-07T01:26:26.307Z,8.99
2022-11-07T01:29:27.961Z,9.04
2022-11-07T01:32:30.959Z,9.07
2022-11-07T01:35:33.145Z,9.06
2022-11-07T01:38:35.314Z,9.11
2022-11-07T01:41:37.878Z,9.12
2022-11-07T01:44:50.701Z,9.14
2022-11-07T01:47:56.201Z,9.16
2022-11-07T01:50:57.768Z,9.19
2022-11-07T01:54:00.279Z,9.19
2022-11-07T01:57:04.307Z,9.22
2022-11-07T02:00:09.181Z,9.26
2022-11-07T02:03:15.989Z,9.27
2022-11-07T02:06:21.086Z,9.26
2022-11-07T02:09:22.720Z,9.27
2022-11-07T02:12:24.995Z,9.30
2022-11-07T02:15:26.950Z,9.31
2022-11-07T02:18:30.539Z,9.35
2022-11-07T02:21:36.903Z,9.37
2022-11-07T02:24:40.437Z,9.40
2022-11-07T02:27:42.600Z,9.39
2022-11-07T02:30:44.279Z,9.37
2022-11-07T02:33:45.875Z,9.39
2022-11-07T02:36:47.352Z,9.39
2022-11-07T02:39:50.971Z,9.35
2022-11-07T02:42:52.605Z,9.38
2022-11-07T02:45:55.698Z,9.36
2022-11-07T02:48:58.202Z,9.33
2022-11-07T02:51:59.908Z,9.33
2022-11-07T02:55:02.838Z,9.30
2022-11-07T02:58:05.324Z,9.27
2022-11-07T03:01:07.238Z,9.26
2022-11-07T03:04:08.792Z,9.30
2022-11-07T03:07:10.466Z,9.32
2022-11-07T03:10:14.478Z,9.29
2022-11-07T03:13:16.438Z,9.29
2022-11-07T03:16:19.103Z,9.30
2022-11-07T03:19:20.991Z,9.30
2022-11-07T03:22:25.396Z,9.32
2022-11-07T03:25:28.353Z,9.35
2022-11-07T03:28:29.837Z,9.35
2022-11-07T03:31:31.476Z,9.37
2022-11-07T03:34:33.127Z,9.38
2022-11-07T03:37:34.621Z,9.36
2022-11-07T03:40:37.555Z,9.32
2022-11-07T03:43:39.139Z,9.32
2022-11-07T03:46:40.651Z,9.33
2022-11-07T03:49:42.085Z,9.31
2022-11-07T03:52:43.629Z,9.29
2022-11-07T03:55:46.723Z,9.26
2022-11-07T03:58:48.413Z,9.26
2022-11-07T04:01:49.980Z,9.25
2022-11-07T04:04:54.618Z,9.23
2022-11-07T04:07:56.388Z,9.20
2022-11-07T04:11:00.013Z,9.18
2022-11-07T04:14:20.128Z,9.15
2022-11-07T04:17:21.737Z,9.17
2022-11-07T04:20:23.276Z,9.17
2022-11-07T04:23:24.742Z,9.14
2022-11-07T04:26:46.081Z,9.13
2022-11-07T04:29:47.631Z,9.14
2022-11-07T04:32:50.016Z,9.14
2022-11-07T04:35:51.648Z,9.15
2022-11-07T04:38:53.130Z,9.13
2022-11-07T04:41:56.727Z,9.11
2022-11-07T04:44:58.236Z,9.07
2022-11-07T04:47:59.793Z,9.06
2022-11-07T04:51:01.314Z,9.07
2022-11-07T04:54:03.016Z,9.06
2022-11-07T04:57:05.811Z,9.04
2022-11-07T05:00:08.392Z,9.05
2022-11-07T05:03:10.163Z,9.02
2022-11-07T05:06:13.417Z,9.07
2022-11-07T05:09:15.659Z,9.08
2022-11-07T05:12:18.556Z,9.13
2022-11-07T05:15:20.917Z,9.17
2022-11-07T05:18:25.115Z,9.20
2022-11-07T05:21:26.792Z,9.21
2022-11-07T05:24:28.363Z,9.20
2022-11-07T05:27:31.213Z,9.19
2022-11-07T05:30:32.817Z,9.18
2022-11-07T05:33:34.764Z,9.17
2022-11-07T05:36:36.518Z,9.16
2022-11-07T05:39:38.267Z,9.18
2022-11-07T05:42:41.283Z,9.19
2022-11-07T05:45:43.109Z,9.20
2022-11-07T05:48:44.605Z,9.21
2022-11-07T05:51:46.157Z,9.23
2022-11-07T05:54:47.629Z,9.20
2022-11-07T05:57:50.846Z,9.21
2022-11-07T06:00:52.528Z,9.23
2022-11-07T06:03:54.079Z,9.22
2022-11-07T06:06:55.540Z,9.23
2022-11-07T06:09:56.989Z,9.23
2022-11-07T06:13:00.516Z,9.24
2022-11-07T06:16:02.608Z,9.27
2022-11-07T06:19:04.323Z,9.26
2022-11-07T06:22:13.192Z,9.27
2022-11-07T06:25:14.808Z,9.25
2022-11-07T06:28:17.590Z,9.25
2022-11-07T06:31:19.332Z,9.24
2022-11-07T06:34:20.932Z,9.24
2022-11-07T06:37:22.469Z,9.22
2022-11-07T06:40:24.090Z,9.21
2022-11-07T06:43:27.114Z,9.19
2022-11-07T06:46:28.632Z,9.14
2022-11-07T06:49:30.126Z,9.10
2022-11-07T06:52:31.606Z,9.10
2022-11-07T06:55:34.056Z,9.04
2022-11-07T06:58:38.083Z,8.98
2022-11-07T07:01:39.645Z,9.00
2022-11-07T07:04:41.247Z,8.98
2022-11-07T07:07:42.860Z,8.96
2022-11-07T07:10:45.385Z,8.95
2022-11-07T07:13:48.487Z,8.96
2022-11-07T07:16:50.045Z,8.96
2022-11-07T07:19:51.612Z,8.97
2022-11-07T07:22:57.967Z,9.00
2022-11-07T07:26:03.532Z,9.00
2022-11-07T07:29:06.426Z,8.97
2022-11-07T07:32:08.438Z,8.99
2022-11-07T07:35:10.713Z,9.04
2022-11-07T07:38:12.471Z,9.09
2022-11-07T07:41:14.158Z,9.12
2022-11-07T07:44:17.075Z,9.12
2022-11-07T07:47:18.716Z,9.10
2022-11-07T07:50:21.446Z,9.08
2022-11-07T07:53:22.964Z,9.13
2022-11-07T07:56:24.599Z,9.16
2022-11-07T07:59:27.582Z,9.22
2022-11-07T08:02:29.082Z,9.23
2022-11-07T08:05:30.688Z,9.24
2022-11-07T08:08:37.769Z,9.25
2022-11-07T08:11:39.943Z,9.29
2022-11-07T08:14:43.022Z,9.35
2022-11-07T08:17:45.118Z,9.40
2022-11-07T08:20:46.679Z,9.46
2022-11-07T08:23:49.589Z,9.52
2022-11-07T08:26:51.136Z,9.55
2022-11-07T08:29:54.167Z,9.61
2022-11-07T08:32:58.425Z,9.64
2022-11-07T08:36:01.567Z,9.63
2022-11-07T08:39:03.053Z,9.64
2022-11-07T08:42:04.600Z,9.65
2022-11-07T08:45:08.605Z,9.65
2022-11-07T08:48:10.602Z,9.66
2022-11-07T08:51:12.068Z,9.70
2022-11-07T08:54:13.752Z,9.79
2022-11-07T08:57:15.250Z,9.84
2022-11-07T09:00:18.826Z,9.90
2022-11-07T09:06:42.672Z,9.97
2022-11-07T09:09:44.114Z,10.00
2022-11-07T09:12:46.358Z,10.02
2022-11-07T09:15:51.493Z,10.08
2022-11-07T09:18:53.674Z,10.13
2022-11-07T09:21:56.437Z,10.16
2022-11-07T09:24:57.994Z,10.18
2022-11-07T09:28:02.389Z,10.20
2022-11-07T09:31:06.465Z,10.30
2022-11-07T09:34:10.352Z,10.38
2022-11-07T09:37:12.025Z,10.42
2022-11-07T09:40:21.822Z,10.46
2022-11-07T09:43:47.696Z,10.48
2022-11-07T09:46:59.108Z,10.49
2022-11-07T09:50:01.524Z,10.52
2022-11-07T09:53:05.746Z,10.56
2022-11-07T09:56:09.713Z,10.62
2022-11-07T09:59:17.148Z,10.67
2022-11-07T10:02:21.748Z,10.68
2022-11-07T10:05:29.967Z,10.69
2022-11-07T10:08:38.843Z,10.78
2022-11-07T10:11:42.484Z,10.81
2022-11-07T10:14:47.317Z,10.88
2022-11-07T10:17:54.096Z,10.98
2022-11-07T10:21:30.539Z,11.02
2022-11-07T10:24:26.661Z,11.16
2022-11-07T10:27:28.240Z,11.23
2022-11-07T10:30:29.835Z,11.31
2022-11-07T10:33:37.370Z,11.41
2022-11-07T10:36:38.879Z,11.50
2022-11-07T10:39:40.530Z,11.53
2022-11-07T10:42:44.314Z,11.60
2022-11-07T10:45:46.553Z,11.60
2022-11-07T10:48:54.123Z,11.68
2022-11-07T10:52:05.230Z,11.76
2022-11-07T10:55:08.030Z,11.83
2022-11-07T10:58:18.119Z,11.82
2022-11-07T11:01:23.404Z,11.83
2022-11-07T11:04:27.594Z,11.85
2022-11-07T11:07:34.244Z,11.89
2022-11-07T11:10:38.835Z,11.99
2022-11-07T11:13:40.307Z,11.99
2022-11-07T11:16:43.379Z,11.97
2022-11-07T11:19:52.753Z,11.99
2022-11-07T11:22:54.606Z,12.08
2022-11-07T11:25:59.930Z,12.08
2022-11-07T11:29:03.750Z,12.05
2022-11-07T11:32:05.581Z,11.97
2022-11-07T11:35:15.376Z,11.98
2022-11-07T11:38:19.031Z,11.95
2022-11-07T11:41:23.322Z,11.93
2022-11-07T11:44:31.306Z,11.91
2022-11-07T11:47:35.784Z,11.90
2022-11-07T11:50:43.253Z,11.89
2022-11-07T11:53:44.777Z,11.94
2022-11-07T11:56:53.626Z,11.96
2022-11-07T12:00:03.020Z,11.95
2022-11-07T12:03:18.339Z,11.94
2022-11-07T12:06:24.512Z,11.96
2022-11-07T12:09:33.184Z,11.97
2022-11-07T12:12:41.754Z,11.96
2022-11-07T12:15:51.700Z,11.94
2022-11-07T12:18:58.056Z,11.93
2022-11-07T12:22:05.790Z,11.97
2022-11-07T12:25:09.982Z,11.95
2022-11-07T12:28:22.847Z,11.92
2022-11-07T12:31:30.243Z,11.93
2022-11-07T12:34:40.449Z,11.91
2022-11-07T12:38:02.564Z,11.89
2022-11-07T12:41:09.547Z,11.90
2022-11-07T12:44:22.267Z,11.87
2022-11-07T12:47:38.006Z,11.82
2022-11-07T12:50:44.553Z,11.76
2022-11-07T12:53:52.226Z,11.67
2022-11-07T12:56:54.375Z,11.56
2022-11-07T12:59:58.474Z,11.44
2022-11-07T13:03:11.519Z,11.31
2022-11-07T13:06:15.770Z,11.19
2022-11-07T13:09:24.205Z,11.11
2022-11-07T13:12:28.604Z,11.01
2022-11-07T13:15:47.562Z,10.95
2022-11-07T13:18:52.029Z,10.91
2022-11-07T13:21:58.671Z,10.90
2022-11-07T13:25:15.021Z,10.86
2022-11-07T13:28:25.672Z,10.81
2022-11-07T13:31:32.015Z,10.78
2022-11-07T13:34:41.655Z,10.77
2022-11-07T13:37:48.059Z,10.77
2022-11-07T13:40:52.714Z,10.77
2022-11-07T13:43:56.247Z,10.75
2022-11-07T13:47:01.087Z,10.77
2022-11-07T13:50:07.432Z,10.74
2022-11-07T13:53:12.518Z,10.74
2022-11-07T13:56:24.445Z,10.74
2022-11-07T13:59:36.685Z,10.74
2022-11-07T14:02:38.608Z,10.73
2022-11-07T14:05:40.317Z,10.71
2022-11-07T14:08:44.688Z,10.71
2022-11-07T14:11:49.944Z,10.72
2022-11-07T14:14:53.597Z,10.73
2022-11-07T14:17:55.276Z,10.72
2022-11-07T14:20:57.847Z,10.72
2022-11-07T14:23:59.931Z,10.72
2022-11-07T14:27:03.584Z,10.76
2022-11-07T14:30:15.152Z,10.76
2022-11-07T14:33:17.781Z,10.72
2022-11-07T14:36:19.918Z,10.68
2022-11-07T14:39:22.594Z,10.66
2022-11-07T14:42:25.871Z,10.66
2022-11-07T14:46:05.587Z,10.70
2022-11-07T14:48:51.396Z,10.74
2022-11-07T14:51:53.724Z,10.76
2022-11-07T14:54:59.811Z,10.81
2022-11-07T14:58:04.168Z,10.81
2022-11-07T15:01:12.029Z,10.82
2022-11-07T15:04:25.233Z,10.82
2022-11-07T15:07:27.766Z,10.86
2022-11-07T15:10:31.501Z,10.90
2022-11-07T15:13:34.861Z,10.95
2022-11-07T15:16:37.312Z,10.96
2022-11-07T15:19:38.884Z,10.95
2022-11-07T15:22:40.563Z,10.96
2022-11-07T15:25:51.128Z,10.94
2022-11-07T15:28:54.279Z,10.94
2022-11-07T15:31:56.256Z,10.93
2022-11-07T15:35:12.435Z,10.92
2022-11-07T15:38:20.718Z,10.90
2022-11-07T15:41:22.663Z,10.86
2022-11-07T15:44:25.576Z,10.94
2022-11-07T15:47:27.147Z,10.95
2022-11-07T15:50:28.744Z,10.98
2022-11-07T15:53:30.364Z,10.98
2022-11-07T15:56:31.838Z,11.00
2022-11-07T15:59:36.604Z,10.99
2022-11-07T16:02:38.249Z,10.97
2022-11-07T16:05:40.464Z,10.96
2022-11-07T16:08:42.122Z,10.95
2022-11-07T16:11:43.679Z,10.98
2022-11-07T16:14:46.747Z,11.00
2022-11-07T16:17:48.581Z,11.05
2022-11-07T16:20:50.263Z,11.09
2022-11-07T16:23:52.684Z,11.11
2022-11-07T16:26:54.237Z,11.14
2022-11-07T16:29:57.277Z,11.13
2022-11-07T16:32:59.681Z,11.14
2022-11-07T16:36:03.096Z,11.19
2022-11-07T16:39:08.014Z,11.21
2022-11-07T16:42:14.147Z,11.22
2022-11-07T16:45:17.676Z,11.24
2022-11-07T16:48:20.527Z,11.27
2022-11-07T16:51:22.550Z,11.27
2022-11-07T16:54:24.394Z,11.28
2022-11-07T16:57:26.274Z,11.24
2022-11-07T17:00:29.270Z,11.24
2022-11-07T17:03:30.876Z,11.22
2022-11-07T17:06:33.775Z,11.21
2022-11-07T17:09:35.403Z,11.20
2022-11-07T17:12:37.080Z,11.18
2022-11-07T17:15:40.680Z,11.15
2022-11-07T17:18:42.574Z,11.13
2022-11-07T17:21:48.473Z,11.13
2022-11-07T17:24:50.336Z,11.13
2022-11-07T17:27:52.072Z,11.11
2022-11-07T17:30:55.320Z,11.14
2022-11-07T17:33:56.975Z,11.14
2022-11-07T17:36:59.587Z,11.12
2022-11-07T17:40:01.216Z,11.12
2022-11-07T17:43:02.834Z,11.12
2022-11-07T17:46:09.141Z,11.11
2022-11-07T17:49:12.233Z,11.10
2022-11-07T17:52:13.809Z,11.12
2022-11-07T17:55:15.456Z,11.12
2022-11-07T17:58:17.281Z,11.11
2022-11-07T18:01:21.366Z,11.12
2022-11-07T18:04:22.907Z,11.14
2022-11-07T18:07:24.666Z,11.11
2022-11-07T18:10:26.109Z,11.11
2022-11-07T18:13:27.667Z,11.11
2022-11-07T18:16:31.644Z,11.09
2022-11-07T18:19:33.386Z,11.09
2022-11-07T18:22:37.560Z,11.09
2022-11-07T18:25:39.745Z,11.09
2022-11-07T18:28:42.661Z,11.08
2022-11-07T18:31:47.380Z,11.08
2022-11-07T18:34:49.142Z,11.04
2022-11-07T18:37:51.585Z,11.06
2022-11-07T18:40:56.975Z,11.05
2022-11-07T18:44:04.228Z,11.04
2022-11-07T18:47:08.254Z,11.05
2022-11-07T18:50:11.278Z,11.03
2022-11-07T18:53:12.924Z,11.04
2022-11-07T18:56:14.483Z,11.03
2022-11-07T18:59:16.014Z,11.03
2022-11-07T19:02:19.948Z,11.04
2022-11-07T19:05:22.186Z,11.06
2022-11-07T19:08:23.774Z,11.08
2022-11-07T19:11:26.644Z,11.07
2022-11-07T19:14:28.700Z,11.07
2022-11-07T19:17:31.645Z,11.03
2022-11-07T19:20:33.357Z,11.05
2022-11-07T19:23:35.586Z,11.04
2022-11-07T19:26:39.651Z,11.03
2022-11-07T19:29:41.262Z,11.03
2022-11-07T19:32:44.219Z,11.03
2022-11-07T19:35:45.714Z,11.03
2022-11-07T19:38:48.010Z,11.04
2022-11-07T19:41:49.592Z,11.00
2022-11-07T19:44:56.330Z,11.02
2022-11-07T19:47:59.657Z,11.00
2022-11-07T19:51:03.975Z,11.01
2022-11-07T19:54:07.565Z,11.00
2022-11-07T19:57:09.160Z,11.01
2022-11-07T20:00:11.195Z,11.01
2022-11-07T20:03:14.360Z,11.02
2022-11-07T20:06:17.565Z,11.01
2022-11-07T20:09:19.202Z,11.01
2022-11-07T20:12:20.723Z,10.99
2022-11-07T20:15:22.698Z,11.02
2022-11-07T20:18:25.694Z,11.03
2022-11-07T20:21:29.226Z,11.03
2022-11-07T20:24:30.997Z,11.04
2022-11-07T20:27:32.742Z,11.04
2022-11-07T20:30:34.562Z,11.05
2022-11-07T20:33:37.570Z,11.05
2022-11-07T20:36:39.150Z,11.04
2022-11-07T20:39:44.260Z,11.05
2022-11-07T20:42:45.928Z,11.04
2022-11-07T20:45:48.220Z,11.03
2022-11-07T20:48:51.182Z,11.02
2022-11-07T20:51:53.501Z,11.02
2022-11-07T20:54:55.099Z,11.02
2022-11-07T20:57:57.329Z,11.02
2022-11-07T21:00:58.930Z,11.05
2022-11-07T21:04:02.534Z,11.04
2022-11-07T21:07:04.195Z,11.07
2022-11-07T21:10:06.202Z,11.08
2022-11-07T21:13:08.328Z,11.07
2022-11-07T21:16:10.103Z,11.06
2022-11-07T21:19:14.697Z,11.09
2022-11-07T21:22:16.265Z,11.09
2022-11-07T21:25:21.240Z,11.09
2022-11-07T21:28:22.854Z,11.10
2022-11-07T21:31:27.222Z,11.11
2022-11-07T21:34:30.389Z,11.10
2022-11-07T21:37:32.528Z,11.09
2022-11-07T21:40:34.006Z,11.12
2022-11-07T21:43:35.850Z,11.12
2022-11-07T21:46:37.432Z,11.11
2022-11-07T21:49:40.499Z,11.13
2022-11-07T21:52:42.163Z,11.10
2022-11-07T21:55:43.718Z,11.08
2022-11-07T21:58:45.375Z,11.10
2022-11-07T22:01:48.766Z,11.08
2022-11-07T22:04:52.058Z,11.09
2022-11-07T22:07:53.736Z,11.08
2022-11-07T22:10:55.166Z,11.03
2022-11-07T22:13:56.800Z,11.00
2022-11-07T22:16:58.260Z,10.98
2022-11-07T22:20:01.236Z,10.97
2022-11-07T22:23:02.687Z,10.98
2022-11-07T22:26:04.722Z,10.98
2022-11-07T22:29:06.213Z,10.96
2022-11-07T22:32:07.728Z,10.93
2022-11-07T22:35:10.899Z,10.91
2022-11-07T22:38:12.500Z,10.88
2022-11-07T22:41:15.055Z,10.90
2022-11-07T22:44:16.969Z,10.87
2022-11-07T22:47:18.685Z,10.87
2022-11-07T22:50:21.604Z,10.92
2022-11-07T22:53:26.184Z,10.92
2022-11-07T22:56:28.255Z,10.92
2022-11-07T22:59:29.996Z,10.94
2022-11-07T23:02:32.117Z,10.94
2022-11-07T23:05:36.012Z,10.96
2022-11-07T23:08:38.049Z,10.95
2022-11-07T23:11:45.868Z,10.91
2022-11-07T23:14:48.374Z,10.88
2022-11-07T23:17:49.986Z,10.85
2022-11-07T23:21:10.005Z,10.84
2022-11-07T23:24:11.934Z,10.79
2022-11-07T23:27:13.552Z,10.73
2022-11-07T23:30:15.116Z,10.68
2022-11-07T23:33:16.620Z,10.67
2022-11-07T23:36:19.600Z,10.64
2022-11-07T23:39:22.017Z,10.61
2022-11-07T23:42:23.649Z,10.64
2022-11-07T23:45:43.735Z,10.64
2022-11-07T23:49:04.483Z,10.63
2022-11-07T23:52:07.354Z,10.60
2022-11-07T23:55:27.553Z,10.57
2022-11-07T23:58:47.844Z,10.54
